createdAt,value
2022-09-30T00:01:42.274Z,87.58
2022-09-30T00:04:14.087Z,87.66
2022-09-30T00:06:42.425Z,87.68
2022-09-30T00:09:14.089Z,87.63
2022-09-30T00:11:42.494Z,87.46
2022-09-30T00:14:14.338Z,87.77
2022-09-30T00:16:42.902Z,87.77
2022-09-30T00:19:11.225Z,87.72
2022-09-30T00:21:39.410Z,88.07
2022-09-30T00:24:07.947Z,88.05
2022-09-30T00:26:36.586Z,88.20
2022-09-30T00:29:05.269Z,88.12
2022-09-30T00:31:34.778Z,88.41
2022-09-30T00:34:11.785Z,88.24
2022-09-30T00:36:44.295Z,88.48
2022-09-30T00:39:15.042Z,88.10
2022-09-30T00:41:43.937Z,88.25
2022-09-30T00:44:30.700Z,88.49
2022-09-30T00:46:59.595Z,88.47
2022-09-30T00:49:27.670Z,88.99
2022-09-30T00:51:58.063Z,88.61
2022-09-30T00:54:29.808Z,88.97
2022-09-30T00:56:59.420Z,88.95
2022-09-30T00:59:29.849Z,88.98
2022-09-30T01:01:57.961Z,88.59
2022-09-30T01:04:27.303Z,88.63
2022-09-30T01:06:55.719Z,88.58
2022-09-30T01:09:23.873Z,88.75
2022-09-30T01:11:53.769Z,88.67
2022-09-30T01:14:25.755Z,88.93
2022-09-30T01:17:20.773Z,88.82
2022-09-30T01:20:04.963Z,88.69
2022-09-30T01:22:32.951Z,88.84
2022-09-30T01:25:21.736Z,89.32
2022-09-30T01:27:58.539Z,89.26
2022-09-30T01:30:38.542Z,89.18
2022-09-30T01:33:15.877Z,89.03
2022-09-30T01:35:51.354Z,89.44
2022-09-30T01:38:19.998Z,89.17
2022-09-30T01:40:48.236Z,89.10
2022-09-30T01:43:51.629Z,89.43
2022-09-30T01:46:20.975Z,90.02
2022-09-30T01:48:55.169Z,89.45
2022-09-30T01:51:38.896Z,89.36
2022-09-30T01:54:20.810Z,89.49
2022-09-30T01:56:52.158Z,89.43
2022-09-30T01:59:35.359Z,89.44
2022-09-30T02:02:21.762Z,89.58
2022-09-30T02:04:57.699Z,89.69
2022-09-30T02:07:30.811Z,89.69
2022-09-30T02:10:01.614Z,89.84
2022-09-30T02:12:34.052Z,89.47
2022-09-30T02:15:06.495Z,89.83
2022-09-30T02:17:46.906Z,90.18
2022-09-30T02:20:24.624Z,89.80
2022-09-30T02:22:57.233Z,89.59
2022-09-30T02:25:30.121Z,89.70
2022-09-30T02:28:05.308Z,89.52
2022-09-30T02:30:35.868Z,89.77
2022-09-30T02:33:07.906Z,89.74
2022-09-30T02:35:38.948Z,89.96
2022-09-30T02:38:11.311Z,90.16
2022-09-30T02:40:43.988Z,90.11
2022-09-30T02:43:11.928Z,89.61
2022-09-30T02:46:03.231Z,89.64
2022-09-30T02:48:43.304Z,89.72
2022-09-30T02:51:15.816Z,89.57
2022-09-30T02:53:49.278Z,89.72
2022-09-30T02:56:17.307Z,89.86
2022-09-30T02:58:45.653Z,89.95
2022-09-30T03:01:15.047Z,89.76
2022-09-30T03:03:57.368Z,90.09
2022-09-30T03:06:25.901Z,90.18
2022-09-30T03:08:54.105Z,90.08
2022-09-30T03:11:26.639Z,90.19
2022-09-30T03:14:00.770Z,90.29
2022-09-30T03:16:44.047Z,90.50
2022-09-30T03:19:34.675Z,90.42
2022-09-30T03:22:05.298Z,90.32
2022-09-30T03:24:33.358Z,90.30
2022-09-30T03:27:09.007Z,90.51
2022-09-30T03:29:37.098Z,90.50
2022-09-30T03:32:05.083Z,90.45
2022-09-30T03:34:57.951Z,90.32
2022-09-30T03:37:45.603Z,90.58
2022-09-30T03:40:31.873Z,90.52
2022-09-30T03:43:25.974Z,90.72
2022-09-30T03:46:01.835Z,91.06
2022-09-30T03:48:32.027Z,90.95
2022-09-30T03:51:01.391Z,90.83
2022-09-30T03:53:29.512Z,90.91
2022-09-30T03:55:57.421Z,90.80
2022-09-30T03:58:25.762Z,90.68
2022-09-30T04:00:54.536Z,90.81
2022-09-30T04:03:23.568Z,90.97
2022-09-30T04:05:51.771Z,91.41
2022-09-30T04:08:20.241Z,91.19
2022-09-30T04:10:48.192Z,91.22
2022-09-30T04:13:16.335Z,91.16
2022-09-30T04:15:44.440Z,91.33
2022-09-30T04:18:12.611Z,91.12
2022-09-30T04:20:40.763Z,91.35
2022-09-30T04:23:08.810Z,90.95
2022-09-30T04:25:36.858Z,91.47
2022-09-30T04:28:05.873Z,91.44
2022-09-30T04:30:33.966Z,91.41
2022-09-30T04:33:02.000Z,91.17
2022-09-30T04:35:30.184Z,91.23
2022-09-30T04:37:58.230Z,91.27
2022-09-30T04:40:26.323Z,91.23
2022-09-30T04:42:58.254Z,91.14
2022-09-30T04:45:26.838Z,91.02
2022-09-30T04:47:54.996Z,91.17
2022-09-30T04:50:22.955Z,90.94
2022-09-30T04:52:51.704Z,91.10
2022-09-30T04:55:19.932Z,91.20
2022-09-30T04:57:49.406Z,91.51
2022-09-30T05:00:17.478Z,91.42
2022-09-30T05:02:45.696Z,91.46
2022-09-30T05:05:14.334Z,91.31
2022-09-30T05:07:42.857Z,91.42
2022-09-30T05:10:11.345Z,91.34
2022-09-30T05:12:41.168Z,91.40
2022-09-30T05:15:10.009Z,91.24
2022-09-30T05:17:38.012Z,91.26
2022-09-30T05:20:10.939Z,91.65
2022-09-30T05:22:39.044Z,91.43
2022-09-30T05:25:07.258Z,91.59
2022-09-30T05:27:35.557Z,91.91
2022-09-30T05:30:03.997Z,91.63
2022-09-30T05:32:32.073Z,91.86
2022-09-30T05:35:00.097Z,92.15
2022-09-30T05:37:28.107Z,92.09
2022-09-30T05:39:56.126Z,91.82
2022-09-30T05:42:24.227Z,91.87
2022-09-30T05:44:52.524Z,92.26
2022-09-30T05:47:20.526Z,92.13
2022-09-30T05:49:50.381Z,92.02
2022-09-30T05:52:22.344Z,91.98
2022-09-30T05:54:50.743Z,92.04
2022-09-30T05:57:18.753Z,91.90
2022-09-30T05:59:47.399Z,92.16
2022-09-30T06:02:15.507Z,92.26
2022-09-30T06:04:43.739Z,91.96
2022-09-30T06:07:11.765Z,92.44
2022-09-30T06:09:40.129Z,92.27
2022-09-30T06:12:08.371Z,92.34
2022-09-30T06:14:36.351Z,92.18
2022-09-30T06:17:06.513Z,92.32
2022-09-30T06:19:34.633Z,92.44
2022-09-30T06:22:02.644Z,92.34
2022-09-30T06:24:31.213Z,92.55
2022-09-30T06:26:59.203Z,92.40
2022-09-30T06:29:27.272Z,92.68
2022-09-30T06:31:55.311Z,92.59
2022-09-30T06:34:23.903Z,92.46
2022-09-30T06:36:52.062Z,92.67
2022-09-30T06:39:20.400Z,92.50
2022-09-30T06:41:48.516Z,92.62
2022-09-30T06:44:25.532Z,92.63
2022-09-30T06:46:54.363Z,92.98
2022-09-30T06:49:22.560Z,92.79
2022-09-30T06:51:51.777Z,92.78
2022-09-30T06:54:21.109Z,92.71
2022-09-30T06:56:49.921Z,92.48
2022-09-30T06:59:18.099Z,92.59
2022-09-30T07:01:46.457Z,92.66
2022-09-30T07:04:14.699Z,92.51
2022-09-30T07:06:42.896Z,92.63
2022-09-30T07:09:11.643Z,92.53
2022-09-30T07:11:39.905Z,92.46
2022-09-30T07:14:09.056Z,92.79
2022-09-30T07:16:37.026Z,92.72
2022-09-30T07:19:05.159Z,92.70
2022-09-30T07:21:33.418Z,92.82
2022-09-30T07:24:01.658Z,92.67
2022-09-30T07:26:30.179Z,92.78
2022-09-30T07:29:00.158Z,92.81
2022-09-30T07:31:33.483Z,92.90
2022-09-30T07:34:04.087Z,92.75
2022-09-30T07:36:34.154Z,92.59
2022-09-30T07:39:06.014Z,92.73
2022-09-30T07:41:36.707Z,92.71
2022-09-30T07:44:06.673Z,92.90
2022-09-30T07:46:36.377Z,92.89
2022-09-30T07:49:06.299Z,92.79
2022-09-30T07:51:35.754Z,92.66
2022-09-30T07:54:14.580Z,92.70
2022-09-30T07:57:10.227Z,92.59
2022-09-30T07:59:34.280Z,92.77
2022-09-30T08:02:02.576Z,93.05
2022-09-30T08:04:30.771Z,92.79
2022-09-30T08:07:00.767Z,92.69
2022-09-30T08:09:30.005Z,92.69
2022-09-30T08:11:58.949Z,92.72
2022-09-30T08:14:28.000Z,92.64
2022-09-30T08:16:58.527Z,92.74
2022-09-30T08:19:27.735Z,92.80
2022-09-30T08:21:56.156Z,92.70
2022-09-30T08:24:25.129Z,92.60
2022-09-30T08:26:53.607Z,92.59
2022-09-30T08:29:42.549Z,92.68
2022-09-30T08:32:09.965Z,92.55
2022-09-30T08:34:38.028Z,92.75
2022-09-30T08:37:09.259Z,92.69
2022-09-30T08:39:38.707Z,92.75
2022-09-30T08:42:36.232Z,92.76
2022-09-30T08:45:16.710Z,92.66
2022-09-30T08:48:03.260Z,92.70
2022-09-30T08:50:43.791Z,92.92
2022-09-30T08:53:15.865Z,92.81
2022-09-30T08:55:45.519Z,92.84
2022-09-30T08:58:27.814Z,92.79
2022-09-30T09:00:58.648Z,92.92
2022-09-30T09:03:29.372Z,93.05
2022-09-30T09:06:03.924Z,93.19
2022-09-30T09:08:34.871Z,93.38
2022-09-30T09:11:10.273Z,93.19
2022-09-30T09:13:44.455Z,93.48
2022-09-30T09:16:48.171Z,93.18
2022-09-30T09:19:17.921Z,93.24
2022-09-30T09:22:01.989Z,93.14
2022-09-30T09:24:50.921Z,93.27
2022-09-30T09:27:20.521Z,93.31
2022-09-30T09:30:08.551Z,93.13
2022-09-30T09:32:37.034Z,93.12
2022-09-30T09:35:16.804Z,93.15
2022-09-30T09:38:25.150Z,93.15
2022-09-30T09:41:00.252Z,93.05
2022-09-30T09:43:41.080Z,93.34
2022-09-30T09:46:14.926Z,93.18
2022-09-30T09:48:45.156Z,93.10
2022-09-30T09:51:19.444Z,93.19
2022-09-30T09:53:48.743Z,93.02
2022-09-30T09:56:19.137Z,93.04
2022-09-30T09:59:05.961Z,93.20
2022-09-30T10:01:34.702Z,92.94
2022-09-30T10:04:11.691Z,93.17
2022-09-30T10:07:03.062Z,93.08
2022-09-30T10:09:31.267Z,93.08
2022-09-30T10:12:08.247Z,93.02
2022-09-30T10:14:46.553Z,92.98
2022-09-30T10:17:21.861Z,92.97
2022-09-30T10:19:52.574Z,92.94
2022-09-30T10:22:25.284Z,92.92
2022-09-30T10:25:09.127Z,92.95
2022-09-30T10:27:37.266Z,93.03
2022-09-30T10:30:06.032Z,92.81
2022-09-30T10:32:34.239Z,92.81
2022-09-30T10:35:17.936Z,93.00
2022-09-30T10:37:53.550Z,92.82
2022-09-30T10:40:23.633Z,93.07
2022-09-30T10:42:51.730Z,92.97
2022-09-30T10:45:32.247Z,93.01
2022-09-30T10:48:03.341Z,92.91
2022-09-30T10:50:31.509Z,93.07
2022-09-30T10:53:02.346Z,93.04
2022-09-30T10:55:32.981Z,92.74
2022-09-30T10:58:23.582Z,93.05
2022-09-30T11:01:14.898Z,92.96
2022-09-30T11:03:54.440Z,92.91
2022-09-30T11:06:24.908Z,92.84
2022-09-30T11:09:00.126Z,92.95
2022-09-30T11:11:33.639Z,92.95
2022-09-30T11:14:28.324Z,92.84
2022-09-30T11:17:05.737Z,92.74
2022-09-30T11:19:38.145Z,93.01
2022-09-30T11:22:06.939Z,92.91
2022-09-30T11:24:37.918Z,92.78
2022-09-30T11:27:35.241Z,92.81
2022-09-30T11:30:13.775Z,93.00
2022-09-30T11:32:51.154Z,92.73
2022-09-30T11:35:28.124Z,92.73
2022-09-30T11:38:10.652Z,92.97
2022-09-30T11:40:38.676Z,93.01
2022-09-30T11:43:18.691Z,92.85
2022-09-30T11:45:58.842Z,93.00
2022-09-30T11:48:33.131Z,92.88
2022-09-30T11:51:26.813Z,93.17
2022-09-30T11:53:54.708Z,92.92
2022-09-30T11:56:32.901Z,92.94
2022-09-30T11:59:03.865Z,92.73
2022-09-30T12:01:34.636Z,92.76
2022-09-30T12:04:06.710Z,92.94
2022-09-30T12:06:36.591Z,92.86
2022-09-30T12:09:21.158Z,92.71
2022-09-30T12:11:52.484Z,92.91
2022-09-30T12:14:26.552Z,92.89
2022-09-30T12:16:56.940Z,92.73
2022-09-30T12:19:35.478Z,92.86
2022-09-30T12:22:03.388Z,92.59
2022-09-30T12:24:38.938Z,92.79
2022-09-30T12:27:34.209Z,92.85
2022-09-30T12:30:17.985Z,92.85
2022-09-30T12:32:52.118Z,92.80
2022-09-30T12:35:20.050Z,92.78
2022-09-30T12:38:12.483Z,92.84
2022-09-30T12:40:43.266Z,92.89
2022-09-30T12:43:26.346Z,92.62
2022-09-30T12:46:00.508Z,92.46
2022-09-30T12:48:41.690Z,92.70
2022-09-30T12:51:11.231Z,92.67
2022-09-30T12:53:40.798Z,92.78
2022-09-30T12:56:10.404Z,92.85
2022-09-30T12:58:44.034Z,92.59
2022-09-30T13:01:13.290Z,92.66
2022-09-30T13:04:04.691Z,92.83
2022-09-30T13:06:47.637Z,92.98
2022-09-30T13:09:16.370Z,92.67
2022-09-30T13:11:45.579Z,92.69
2022-09-30T13:14:13.729Z,92.42
2022-09-30T13:17:03.718Z,92.56
2022-09-30T13:19:42.190Z,92.68
2022-09-30T13:22:19.111Z,92.73
2022-09-30T13:25:05.642Z,92.58
2022-09-30T13:27:47.772Z,92.58
2022-09-30T13:30:15.845Z,92.59
2022-09-30T13:32:45.887Z,92.52
2022-09-30T13:35:35.236Z,92.31
2022-09-30T13:38:29.347Z,92.23
2022-09-30T13:41:03.299Z,92.32
2022-09-30T13:43:44.003Z,92.34
2022-09-30T13:46:24.270Z,92.30
2022-09-30T13:48:55.653Z,92.55
2022-09-30T13:51:28.628Z,92.57
2022-09-30T13:53:59.006Z,92.43
2022-09-30T13:56:33.499Z,92.40
2022-09-30T13:59:06.853Z,92.17
2022-09-30T14:01:53.833Z,92.70
2022-09-30T14:04:58.959Z,92.57
2022-09-30T14:07:26.979Z,92.93
2022-09-30T14:10:14.070Z,92.79
2022-09-30T14:12:49.635Z,92.76
2022-09-30T14:15:37.529Z,92.96
2022-09-30T14:18:24.450Z,92.52
2022-09-30T14:21:10.769Z,92.48
2022-09-30T14:23:38.812Z,92.36
2022-09-30T14:26:25.485Z,92.34
2022-09-30T14:29:02.346Z,92.33
2022-09-30T14:31:34.160Z,92.46
2022-09-30T14:34:02.401Z,92.23
2022-09-30T14:36:30.688Z,92.50
2022-09-30T14:38:59.740Z,92.59
2022-09-30T14:41:32.033Z,92.46
2022-09-30T14:44:05.108Z,92.46
2022-09-30T14:46:39.063Z,92.23
2022-09-30T14:49:09.920Z,92.24
2022-09-30T14:51:43.565Z,92.09
2022-09-30T14:54:19.404Z,92.19
2022-09-30T14:56:48.393Z,92.32
2022-09-30T14:59:18.818Z,92.10
2022-09-30T15:01:49.270Z,92.07
2022-09-30T15:04:19.466Z,92.30
2022-09-30T15:06:49.844Z,92.17
2022-09-30T15:09:23.163Z,92.20
2022-09-30T15:11:51.342Z,92.03
2022-09-30T15:14:23.819Z,92.07
2022-09-30T15:16:56.216Z,92.18
2022-09-30T15:19:26.149Z,92.24
2022-09-30T15:21:55.315Z,92.17
2022-09-30T15:24:26.049Z,92.26
2022-09-30T15:26:55.719Z,92.03
2022-09-30T15:29:24.288Z,91.99
2022-09-30T15:32:01.289Z,92.18
2022-09-30T15:34:30.641Z,91.97
2022-09-30T15:37:04.600Z,92.01
2022-09-30T15:39:54.334Z,92.04
2022-09-30T15:42:28.994Z,92.18
2022-09-30T15:44:59.413Z,92.09
2022-09-30T15:47:28.420Z,92.04
2022-09-30T15:49:56.438Z,91.92
2022-09-30T15:52:36.888Z,92.00
2022-09-30T15:55:25.387Z,92.09
2022-09-30T15:57:53.381Z,92.04
2022-09-30T16:00:35.962Z,91.97
2022-09-30T16:03:19.182Z,92.03
2022-09-30T16:05:51.923Z,92.11
2022-09-30T16:08:25.209Z,92.13
2022-09-30T16:10:55.430Z,92.06
2022-09-30T16:13:26.446Z,91.91
2022-09-30T16:15:55.552Z,92.30
2022-09-30T16:18:32.693Z,91.90
2022-09-30T16:21:05.551Z,91.93
2022-09-30T16:23:38.203Z,92.05
2022-09-30T16:26:12.998Z,91.97
2022-09-30T16:28:41.402Z,92.03
2022-09-30T16:31:10.123Z,91.94
2022-09-30T16:33:41.072Z,92.21
2022-09-30T16:36:10.547Z,92.02
2022-09-30T16:38:38.946Z,92.05
2022-09-30T16:41:10.039Z,91.95
2022-09-30T16:43:39.157Z,92.03
2022-09-30T16:46:09.081Z,92.13
2022-09-30T16:48:38.496Z,92.08
2022-09-30T16:51:08.180Z,91.99
2022-09-30T16:53:37.748Z,92.03
2022-09-30T16:56:06.202Z,92.02
2022-09-30T16:58:34.523Z,92.02
2022-09-30T17:01:02.565Z,92.01
2022-09-30T17:03:31.216Z,91.99
2022-09-30T17:05:59.972Z,91.94
2022-09-30T17:08:28.073Z,92.13
2022-09-30T17:10:57.929Z,91.89
2022-09-30T17:13:26.215Z,92.09
2022-09-30T17:15:55.169Z,91.99
2022-09-30T17:18:23.183Z,92.01
2022-09-30T17:20:53.173Z,92.18
2022-09-30T17:23:22.975Z,91.80
2022-09-30T17:25:51.463Z,91.98
2022-09-30T17:28:19.637Z,92.00
2022-09-30T17:30:49.165Z,92.00
2022-09-30T17:33:19.429Z,92.10
2022-09-30T17:35:59.599Z,92.15
2022-09-30T17:38:28.317Z,92.11
2022-09-30T17:41:15.307Z,92.04
2022-09-30T17:43:45.524Z,92.15
2022-09-30T17:46:18.640Z,92.21
2022-09-30T17:48:46.847Z,92.13
2022-09-30T17:51:18.287Z,92.35
2022-09-30T17:53:47.079Z,92.13
2022-09-30T17:56:20.197Z,92.11
2022-09-30T17:58:50.704Z,91.94
2022-09-30T18:01:20.791Z,92.22
2022-09-30T18:03:53.054Z,92.08
2022-09-30T18:06:21.257Z,92.00
2022-09-30T18:08:50.242Z,92.24
2022-09-30T18:11:26.187Z,91.95
2022-09-30T18:13:55.920Z,92.15
2022-09-30T18:16:24.830Z,92.30
2022-09-30T18:18:52.959Z,91.93
2022-09-30T18:21:21.078Z,92.11
2022-09-30T18:23:51.865Z,92.00
2022-09-30T18:26:20.233Z,92.14
2022-09-30T18:28:49.535Z,92.23
2022-09-30T18:31:28.503Z,91.98
2022-09-30T18:33:57.165Z,92.15
2022-09-30T18:36:37.497Z,92.25
2022-09-30T18:39:06.263Z,92.15
2022-09-30T18:41:36.030Z,92.28
2022-09-30T18:44:05.085Z,92.35
2022-09-30T18:46:33.467Z,92.23
2022-09-30T18:49:02.079Z,92.38
2022-09-30T18:51:30.821Z,92.19
2022-09-30T18:54:00.826Z,92.22
2022-09-30T18:56:32.182Z,92.22
2022-09-30T18:59:04.442Z,92.22
2022-09-30T19:01:34.779Z,92.04
2022-09-30T19:04:04.154Z,92.24
2022-09-30T19:06:33.006Z,92.38
2022-09-30T19:09:01.261Z,92.30
2022-09-30T19:11:30.701Z,92.54
2022-09-30T19:14:02.438Z,92.35
2022-09-30T19:16:36.632Z,92.31
2022-09-30T19:19:10.579Z,92.24
2022-09-30T19:21:39.406Z,92.21
2022-09-30T19:24:08.495Z,92.37
2022-09-30T19:26:38.014Z,92.35
2022-09-30T19:29:07.304Z,92.32
2022-09-30T19:31:37.106Z,92.47
2022-09-30T19:34:06.566Z,92.41
2022-09-30T19:36:45.458Z,92.23
2022-09-30T19:39:15.921Z,92.46
2022-09-30T19:41:46.301Z,92.28
2022-09-30T19:44:18.871Z,92.28
2022-09-30T19:46:50.424Z,92.29
2022-09-30T19:49:18.499Z,92.29
2022-09-30T19:51:46.728Z,92.30
2022-09-30T19:54:14.768Z,92.31
2022-09-30T19:56:42.812Z,92.43
2022-09-30T19:59:11.286Z,92.47
2022-09-30T20:02:12.654Z,92.30
2022-09-30T20:04:42.786Z,92.53
2022-09-30T20:07:11.079Z,92.25
2022-09-30T20:09:39.253Z,92.51
2022-09-30T20:12:07.912Z,92.26
2022-09-30T20:14:54.612Z,92.26
2022-09-30T20:17:23.122Z,92.33
2022-09-30T20:20:09.965Z,92.33
2022-09-30T20:22:38.003Z,92.14
2022-09-30T20:25:06.717Z,92.35
2022-09-30T20:27:34.746Z,92.18
2022-09-30T20:30:03.356Z,92.25
2022-09-30T20:32:31.551Z,92.49
2022-09-30T20:34:59.643Z,92.33
2022-09-30T20:37:27.578Z,92.45
2022-09-30T20:39:56.765Z,92.42
2022-09-30T20:42:32.346Z,92.35
2022-09-30T20:45:03.139Z,92.49
2022-09-30T20:47:31.743Z,92.30
2022-09-30T20:49:59.797Z,92.43
2022-09-30T20:52:28.906Z,92.51
2022-09-30T20:55:00.589Z,92.51
2022-09-30T20:57:32.577Z,92.38
2022-09-30T21:00:01.875Z,92.54
2022-09-30T21:02:30.464Z,92.48
2022-09-30T21:04:58.742Z,92.16
2022-09-30T21:07:27.060Z,92.60
2022-09-30T21:09:55.159Z,92.32
2022-09-30T21:12:23.268Z,92.23
2022-09-30T21:14:51.291Z,92.72
2022-09-30T21:17:19.299Z,92.35
2022-09-30T21:19:47.491Z,92.58
2022-09-30T21:22:17.264Z,92.57
2022-09-30T21:24:45.352Z,92.62
2022-09-30T21:27:14.057Z,92.62
2022-09-30T21:29:43.820Z,92.65
2022-09-30T21:32:11.941Z,92.52
2022-09-30T21:34:40.093Z,92.50
2022-09-30T21:37:08.327Z,92.54
2022-09-30T21:39:36.405Z,92.60
2022-09-30T21:42:04.611Z,92.48
2022-09-30T21:44:32.608Z,92.46
2022-09-30T21:47:00.650Z,92.52
2022-09-30T21:49:28.838Z,92.74
2022-09-30T21:51:56.835Z,92.70
2022-09-30T21:54:24.892Z,92.57
2022-09-30T21:56:53.589Z,92.54
2022-09-30T21:59:21.695Z,92.47
2022-09-30T22:01:49.727Z,92.65
2022-09-30T22:04:19.706Z,92.77
2022-09-30T22:06:48.011Z,92.46
2022-09-30T22:09:16.015Z,92.63
2022-09-30T22:11:44.416Z,92.66
2022-09-30T22:14:12.508Z,92.73
2022-09-30T22:16:41.062Z,92.78
2022-09-30T22:19:09.111Z,92.54
2022-09-30T22:21:37.784Z,92.51
2022-09-30T22:24:07.074Z,92.46
2022-09-30T22:26:36.694Z,92.39
2022-09-30T22:29:06.037Z,92.49
2022-09-30T22:31:34.947Z,92.60
2022-09-30T22:34:23.301Z,92.57
2022-09-30T22:37:10.085Z,92.60
2022-09-30T22:39:38.062Z,92.54
2022-09-30T22:42:07.397Z,92.42
2022-09-30T22:44:36.562Z,92.49
2022-09-30T22:47:05.124Z,92.44
2022-09-30T22:49:33.437Z,92.64
2022-09-30T22:52:04.230Z,92.58
2022-09-30T22:54:33.664Z,92.30
2022-09-30T22:57:01.943Z,92.54
2022-09-30T22:59:30.291Z,92.72
2022-09-30T23:01:58.402Z,92.70
2022-09-30T23:04:27.042Z,92.56
2022-09-30T23:06:58.137Z,92.46
2022-09-30T23:09:26.086Z,92.63
2022-09-30T23:11:55.047Z,92.55
2022-09-30T23:14:23.848Z,92.40
2022-09-30T23:16:51.970Z,92.33
2022-09-30T23:19:20.006Z,92.54
2022-09-30T23:21:48.060Z,92.41
2022-09-30T23:24:16.112Z,92.56
2022-09-30T23:26:45.423Z,92.41
2022-09-30T23:29:14.128Z,92.33
2022-09-30T23:31:42.240Z,92.47
2022-09-30T23:34:10.347Z,92.50
2022-09-30T23:36:38.259Z,92.64
2022-09-30T23:39:12.441Z,92.59
2022-09-30T23:41:40.518Z,92.59
2022-09-30T23:44:10.098Z,92.50
2022-09-30T23:46:38.091Z,92.63
2022-09-30T23:49:06.139Z,92.56
2022-09-30T23:51:34.700Z,92.75
2022-09-30T23:54:03.126Z,92.58
2022-09-30T23:56:32.231Z,92.55
2022-09-30T23:59:00.282Z,92.58
